Harding, Illinois
Current Conditions -  °F | °C
As of 3:55 AM on Sunday 21 Dec 2014 (Local Time) from KVYS Reporting Station
Overcast Overcast  
Wind Chill: 28°   Ceiling: 2700
Heat Index: 34°   Visibility: 7mi
Dew Point: 31°   Wind: 8mph
Humidity: 88%   Direction: 170°S
Pressure: 30.2"   Gusts: NA
Location:  41.5869°N, 88.887°W
Report Text: KVYS 210955Z AUTO 17007KT 7SM OVC027 01/00 A3020 RMK AO2 T00131005
Loading
Personal Weather Stations






























Interactive Weather Map New forecast layout! Learn more

10-Day Weather Forecast

Advertisements
Track Severe Weather on mobile